Time;durP1;ratioP1;P1;durP2;ratioP2;P2;SDS_P1;SDS_P2;PMS_P1;PMS_P2;Temp;Humidity;BMP_temperature;BMP_pressure;BME280_temperature;BME280_humidity;BME280_pressure;Samples;Min_cycle;Max_cycle;Signal;HPM_P1;HPM_P2
2021/01/04 00:01:53;;;;;;;;;;;4.30;81.30;;;;;;4912133;28;19930;-44
2021/01/04 00:04:29;;;;;;;;;;;4.30;81.40;;;;;;4911502;28;19941;-43
2021/01/04 00:06:55;;;;;;;;;;;4.30;81.30;;;;;;4912502;28;20005;-46
2021/01/04 00:09:21;;;;;;;;;;;4.30;81.40;;;;;;4910235;28;20987;-44
2021/01/04 00:11:50;;;;;;;;;;;4.20;81.50;;;;;;4920118;28;19933;-46
2021/01/04 00:14:32;;;;;;;;;;;4.20;81.50;;;;;;4913320;28;19929;-46
2021/01/04 00:17:03;;;;;;;;;;;4.20;81.50;;;;;;4912094;28;19934;-46
2021/01/04 00:19:35;;;;;;;;;;;4.20;81.50;;;;;;4912208;28;19934;-43
2021/01/04 00:22:01;;;;;;;;;;;4.20;81.50;;;;;;4906653;28;19974;-45
2021/01/04 00:24:46;;;;;;;;;;;4.20;81.50;;;;;;4910293;28;19934;-46
2021/01/04 00:27:19;;;;;;;;;;;4.20;81.40;;;;;;4886093;28;19933;-46
2021/01/04 00:29:46;;;;;;;;;;;4.20;81.50;;;;;;4909428;28;19930;-43
2021/01/04 00:32:19;;;;;;;;;;;4.20;81.50;;;;;;4917707;28;19934;-46
2021/01/04 00:34:47;;;;;;;;;;;4.20;81.60;;;;;;4910584;28;20006;-43
2021/01/04 00:37:23;;;;;;;;;;;4.20;81.60;;;;;;4907187;28;19933;-45
2021/01/04 00:39:50;;;;;;;;;;;4.20;81.60;;;;;;4911678;28;19933;-43
2021/01/04 00:42:33;;;;;;;;;;;4.20;81.50;;;;;;4907816;28;19934;-45
2021/01/04 00:45:12;;;;;;;;;;;4.20;81.40;;;;;;4912819;28;19926;-45
2021/01/04 00:47:44;;;;;;;;;;;4.20;81.40;;;;;;4906864;28;20009;-44
2021/01/04 00:50:31;;;;;;;;;;;4.20;81.50;;;;;;4919756;28;19934;-44
2021/01/04 00:53:18;;;;;;;;;;;4.20;81.50;;;;;;4910746;28;19933;-46
2021/01/04 00:55:44;;;;;;;;;;;4.30;81.40;;;;;;4915617;28;19930;-45
2021/01/04 00:58:10;;;;;;;;;;;4.30;81.30;;;;;;4907550;28;19934;-46
2021/01/04 01:00:49;;;;;;;;;;;4.20;81.40;;;;;;4913283;28;19930;-42
2021/01/04 01:03:34;;;;;;;;;;;4.20;81.50;;;;;;4906818;28;19986;-46
2021/01/04 01:06:23;;;;;;;;;;;4.30;81.40;;;;;;4910194;28;19930;-46
2021/01/04 01:08:54;;;;;;;;;;;4.20;81.60;;;;;;4914383;28;19936;-44
2021/01/04 01:11:23;;;;;;;;;;;4.20;81.60;;;;;;4910498;28;19930;-44
2021/01/04 01:13:57;;;;;;;;;;;4.20;81.50;;;;;;4918659;28;19939;-43
2021/01/04 01:16:26;;;;;;;;;;;4.20;81.50;;;;;;4909084;28;19927;-46
2021/01/04 01:18:59;;;;;;;;;;;4.20;81.50;;;;;;4923976;28;19933;-44
2021/01/04 01:21:28;;;;;;;;;;;4.30;81.30;;;;;;4912950;28;19930;-44
2021/01/04 01:23:55;;;;;;;;;;;4.30;81.30;;;;;;4907727;28;19926;-45
2021/01/04 01:26:40;;;;;;;;;;;4.30;81.30;;;;;;4909925;28;20021;-44
2021/01/04 01:29:24;;;;;;;;;;;4.20;81.40;;;;;;4922904;28;19930;-47
2021/01/04 01:32:05;;;;;;;;;;;4.20;81.50;;;;;;4895678;28;19991;-42
2021/01/04 01:34:50;;;;;;;;;;;4.20;81.60;;;;;;4913355;28;20355;-43
2021/01/04 01:37:35;;;;;;;;;;;4.20;81.60;;;;;;4909765;28;19934;-43
2021/01/04 01:40:30;;;;;;;;;;;4.20;81.60;;;;;;4911132;28;20026;-45
2021/01/04 01:42:56;;;;;;;;;;;4.20;81.60;;;;;;4913493;28;19930;-46
2021/01/04 01:45:37;;;;;;;;;;;4.10;81.60;;;;;;4910192;28;24173;-45
2021/01/04 01:48:08;;;;;;;;;;;4.10;81.50;;;;;;4914334;28;24232;-43
2021/01/04 01:50:40;;;;;;;;;;;4.10;81.60;;;;;;4911230;28;20064;-45
2021/01/04 01:53:06;;;;;;;;;;;4.10;81.60;;;;;;4907800;28;20293;-46
2021/01/04 01:55:39;;;;;;;;;;;4.10;81.50;;;;;;4908895;28;21039;-44
2021/01/04 01:58:14;;;;;;;;;;;4.10;81.60;;;;;;4907381;28;20527;-46
2021/01/04 02:00:47;;;;;;;;;;;4.10;81.60;;;;;;4909362;28;20384;-46
2021/01/04 02:03:28;;;;;;;;;;;4.10;81.60;;;;;;4909542;28;19926;-46
2021/01/04 02:06:11;;;;;;;;;;;4.00;81.50;;;;;;4910726;28;19930;-45
2021/01/04 02:08:42;;;;;;;;;;;4.00;81.60;;;;;;4912212;28;19945;-43
2021/01/04 02:11:19;;;;;;;;;;;4.00;81.50;;;;;;4914030;28;19941;-45
2021/01/04 02:14:01;;;;;;;;;;;4.00;81.50;;;;;;4913657;28;20445;-45
2021/01/04 02:16:33;;;;;;;;;;;4.00;81.50;;;;;;4923474;28;19942;-44
2021/01/04 02:19:13;;;;;;;;;;;4.00;81.50;;;;;;4913079;28;20510;-44
2021/01/04 02:21:50;;;;;;;;;;;3.90;81.50;;;;;;4924522;28;19934;-46
2021/01/04 02:24:20;;;;;;;;;;;3.90;81.60;;;;;;4908894;28;20340;-44
2021/01/04 02:27:12;;;;;;;;;;;3.90;81.60;;;;;;4915001;28;19930;-44
2021/01/04 02:29:41;;;;;;;;;;;3.90;81.50;;;;;;4899836;28;20064;-44
2021/01/04 02:32:08;;;;;;;;;;;3.90;81.50;;;;;;4909999;28;19930;-45
2021/01/04 02:34:36;;;;;;;;;;;3.80;81.70;;;;;;4908838;28;19941;-46
2021/01/04 02:37:03;;;;;;;;;;;3.90;81.70;;;;;;4907853;28;19926;-44
2021/01/04 02:39:39;;;;;;;;;;;3.90;81.70;;;;;;4911284;28;19926;-45
2021/01/04 02:42:07;;;;;;;;;;;3.80;81.60;;;;;;4910034;28;19934;-42
2021/01/04 02:44:33;;;;;;;;;;;3.80;81.70;;;;;;4910599;28;20233;-43
2021/01/04 02:47:08;;;;;;;;;;;3.80;81.80;;;;;;4915291;28;20445;-44
2021/01/04 02:49:50;;;;;;;;;;;3.80;81.70;;;;;;4913283;28;19933;-45
2021/01/04 02:52:21;;;;;;;;;;;3.80;81.70;;;;;;4910026;28;19937;-43
2021/01/04 02:54:59;;;;;;;;;;;3.80;81.80;;;;;;4912218;28;19926;-45
2021/01/04 02:57:31;;;;;;;;;;;3.80;81.90;;;;;;4912399;28;19934;-45
2021/01/04 02:59:58;;;;;;;;;;;3.80;81.90;;;;;;4914685;28;19957;-45
2021/01/04 03:02:45;;;;;;;;;;;3.80;81.80;;;;;;4913573;28;19941;-44
2021/01/04 03:05:16;;;;;;;;;;;3.80;81.90;;;;;;4914894;28;20384;-45
2021/01/04 03:07:48;;;;;;;;;;;3.80;81.80;;;;;;4914358;28;20371;-44
2021/01/04 03:10:24;;;;;;;;;;;3.80;81.80;;;;;;4910518;28;20195;-42
2021/01/04 03:13:14;;;;;;;;;;;3.80;81.90;;;;;;4927384;28;20016;-45
2021/01/04 03:16:00;;;;;;;;;;;3.80;81.90;;;;;;4896619;28;19935;-43
2021/01/04 03:18:40;;;;;;;;;;;3.80;81.90;;;;;;4920912;28;20290;-44
2021/01/04 03:21:08;;;;;;;;;;;3.80;82.00;;;;;;4916375;28;19926;-45
2021/01/04 03:23:34;;;;;;;;;;;3.90;81.90;;;;;;4915025;28;19927;-45
2021/01/04 03:26:06;;;;;;;;;;;3.80;81.90;;;;;;4916751;28;19937;-44
2021/01/04 03:28:32;;;;;;;;;;;3.80;81.90;;;;;;4917410;28;19930;-44
2021/01/04 03:30:59;;;;;;;;;;;3.80;82.10;;;;;;4913231;28;19933;-45
2021/01/04 03:33:28;;;;;;;;;;;3.80;82.10;;;;;;4929246;28;23207;-45
2021/01/04 03:35:54;;;;;;;;;;;3.80;82.10;;;;;;4909874;28;19958;-44
2021/01/04 03:38:21;;;;;;;;;;;3.80;82.10;;;;;;4916663;28;20517;-45
2021/01/04 03:40:48;;;;;;;;;;;3.80;82.10;;;;;;4914157;28;19934;-45
2021/01/04 03:43:14;;;;;;;;;;;3.80;82.10;;;;;;4907359;28;19926;-45
2021/01/04 03:45:41;;;;;;;;;;;3.80;82.10;;;;;;4907625;28;19926;-44
2021/01/04 03:48:07;;;;;;;;;;;3.80;82.10;;;;;;4929539;28;20390;-44
2021/01/04 03:50:37;;;;;;;;;;;3.70;82.20;;;;;;4913103;28;19934;-42
2021/01/04 03:53:04;;;;;;;;;;;3.70;82.40;;;;;;4906314;28;19934;-44
2021/01/04 03:55:30;;;;;;;;;;;3.70;82.40;;;;;;4896229;28;20275;-45
2021/01/04 03:57:56;;;;;;;;;;;3.70;82.50;;;;;;4912579;28;20474;-45
2021/01/04 04:00:23;;;;;;;;;;;3.70;82.50;;;;;;4902739;28;20025;-45
2021/01/04 04:02:54;;;;;;;;;;;3.70;82.50;;;;;;4906629;28;20007;-44
2021/01/04 04:05:20;;;;;;;;;;;3.70;82.50;;;;;;4907350;28;22207;-44
2021/01/04 04:07:46;;;;;;;;;;;3.70;82.60;;;;;;4913626;28;19936;-44
2021/01/04 04:10:14;;;;;;;;;;;3.80;82.60;;;;;;4905997;28;19940;-46
2021/01/04 04:12:41;;;;;;;;;;;3.80;82.70;;;;;;4921367;28;19933;-43
2021/01/04 04:15:11;;;;;;;;;;;3.70;82.50;;;;;;4910610;28;19966;-45
2021/01/04 04:17:38;;;;;;;;;;;3.70;82.70;;;;;;4914618;28;19960;-44
2021/01/04 04:20:05;;;;;;;;;;;3.70;82.70;;;;;;4914697;28;20016;-45
2021/01/04 04:22:31;;;;;;;;;;;3.70;82.80;;;;;;4925856;28;20443;-44
2021/01/04 04:24:57;;;;;;;;;;;3.70;82.80;;;;;;4905350;28;19934;-45
2021/01/04 04:27:49;;;;;;;;;;;3.70;82.90;;;;;;4915629;28;20342;-44
2021/01/04 04:30:17;;;;;;;;;;;3.70;82.90;;;;;;4914063;28;19965;-44
2021/01/04 04:32:43;;;;;;;;;;;3.70;83.10;;;;;;4910373;28;19930;-44
2021/01/04 04:35:10;;;;;;;;;;;3.70;83.10;;;;;;4909003;28;20381;-45
2021/01/04 04:37:39;;;;;;;;;;;3.70;83.10;;;;;;4919830;28;19926;-46
2021/01/04 04:40:05;;;;;;;;;;;3.70;83.10;;;;;;4912675;28;19949;-45
2021/01/04 04:42:38;;;;;;;;;;;3.70;83.20;;;;;;4902589;28;21303;-45
2021/01/04 04:45:10;;;;;;;;;;;3.70;83.20;;;;;;4913190;28;20386;-44
2021/01/04 04:48:00;;;;;;;;;;;3.70;83.10;;;;;;4912713;28;19945;-42
2021/01/04 04:50:37;;;;;;;;;;;3.70;83.20;;;;;;4919485;28;19938;-45
2021/01/04 04:53:22;;;;;;;;;;;3.70;83.20;;;;;;4924698;28;19933;-44
2021/01/04 04:56:08;;;;;;;;;;;3.70;83.20;;;;;;4927327;28;19933;-44
2021/01/04 04:58:55;;;;;;;;;;;3.70;83.20;;;;;;4914831;28;19945;-45
2021/01/04 05:01:41;;;;;;;;;;;3.70;83.20;;;;;;4910031;28;20020;-44
2021/01/04 05:04:11;;;;;;;;;;;3.70;83.10;;;;;;4910432;28;19932;-45
2021/01/04 05:06:37;;;;;;;;;;;3.70;83.10;;;;;;4910300;28;19930;-44
2021/01/04 05:09:22;;;;;;;;;;;3.70;83.10;;;;;;4929225;28;19933;-45
2021/01/04 05:12:00;;;;;;;;;;;3.70;83.00;;;;;;4911201;28;19963;-45
2021/01/04 05:14:31;;;;;;;;;;;3.70;83.10;;;;;;4913243;28;19937;-44
2021/01/04 05:17:01;;;;;;;;;;;3.70;83.30;;;;;;4918531;28;19934;-45
2021/01/04 05:19:48;;;;;;;;;;;3.70;83.20;;;;;;4913324;28;19938;-44
2021/01/04 05:22:33;;;;;;;;;;;3.60;83.30;;;;;;4923538;28;19941;-46
2021/01/04 05:25:22;;;;;;;;;;;3.70;83.20;;;;;;4909349;28;19934;-44
2021/01/04 05:27:54;;;;;;;;;;;3.70;83.20;;;;;;4913260;28;19942;-45
2021/01/04 05:30:28;;;;;;;;;;;3.60;83.30;;;;;;4912632;28;19930;-44
2021/01/04 05:33:13;;;;;;;;;;;3.60;83.40;;;;;;4912356;28;19926;-46
2021/01/04 05:35:40;;;;;;;;;;;3.70;83.30;;;;;;4906784;28;20498;-46
2021/01/04 05:38:13;;;;;;;;;;;3.70;83.20;;;;;;4916363;28;26576;-46
2021/01/04 05:40:39;;;;;;;;;;;3.70;83.30;;;;;;4912028;28;19937;-44
2021/01/04 05:43:05;;;;;;;;;;;3.60;83.40;;;;;;4908757;28;19930;-44
2021/01/04 05:45:44;;;;;;;;;;;3.60;83.40;;;;;;4911501;28;19930;-44
2021/01/04 05:48:14;;;;;;;;;;;3.60;83.60;;;;;;4906775;28;19926;-45
2021/01/04 05:50:43;;;;;;;;;;;3.70;83.60;;;;;;4901133;28;20464;-46
2021/01/04 05:53:09;;;;;;;;;;;3.70;83.50;;;;;;4902044;28;19930;-45
2021/01/04 05:55:35;;;;;;;;;;;3.70;83.50;;;;;;4906797;28;19926;-45
2021/01/04 05:58:12;;;;;;;;;;;3.70;83.50;;;;;;4915037;28;20362;-45
2021/01/04 06:00:38;;;;;;;;;;;3.70;83.40;;;;;;4912060;28;19934;-45
2021/01/04 06:03:05;;;;;;;;;;;3.70;83.50;;;;;;4911060;28;20470;-45
2021/01/04 06:05:32;;;;;;;;;;;3.80;83.50;;;;;;4909518;28;20453;-44
2021/01/04 06:07:58;;;;;;;;;;;3.80;83.40;;;;;;4913168;28;22113;-44
2021/01/04 06:10:29;;;;;;;;;;;3.80;83.30;;;;;;4904237;28;19937;-45
2021/01/04 06:13:11;;;;;;;;;;;3.80;83.40;;;;;;4909862;28;19926;-45
2021/01/04 06:15:40;;;;;;;;;;;3.80;83.40;;;;;;4909032;28;19930;-44
2021/01/04 06:18:12;;;;;;;;;;;3.80;83.50;;;;;;4910813;28;20008;-46
2021/01/04 06:20:38;;;;;;;;;;;3.80;83.40;;;;;;4910914;28;20385;-44
2021/01/04 06:23:11;;;;;;;;;;;3.80;83.50;;;;;;4921435;28;19961;-45
2021/01/04 06:25:37;;;;;;;;;;;3.80;83.50;;;;;;4913011;28;20518;-45
2021/01/04 06:28:04;;;;;;;;;;;3.80;83.50;;;;;;4906508;28;19938;-44
2021/01/04 06:30:32;;;;;;;;;;;3.80;83.40;;;;;;4914610;28;19934;-44
2021/01/04 06:33:03;;;;;;;;;;;3.80;83.40;;;;;;4908019;28;19937;-45
2021/01/04 06:35:30;;;;;;;;;;;3.80;83.60;;;;;;4906186;28;19933;-43
2021/01/04 06:38:02;;;;;;;;;;;3.80;83.60;;;;;;4924861;28;20314;-44
2021/01/04 06:40:37;;;;;;;;;;;3.80;83.60;;;;;;4904040;28;20292;-43
2021/01/04 06:43:19;;;;;;;;;;;3.70;83.60;;;;;;4908787;28;19968;-43
2021/01/04 06:45:48;;;;;;;;;;;3.70;83.80;;;;;;4909337;28;19934;-45
2021/01/04 06:48:27;;;;;;;;;;;3.80;83.80;;;;;;4910268;28;19933;-44
2021/01/04 06:51:09;;;;;;;;;;;3.80;83.80;;;;;;4912119;28;19930;-44
2021/01/04 06:53:52;;;;;;;;;;;3.80;83.80;;;;;;4924731;28;19926;-45
2021/01/04 06:56:24;;;;;;;;;;;3.70;83.80;;;;;;4907301;28;20385;-42
2021/01/04 06:59:09;;;;;;;;;;;3.80;83.90;;;;;;4912719;28;20016;-44
2021/01/04 07:01:48;;;;;;;;;;;3.70;83.80;;;;;;4909407;28;19926;-44
2021/01/04 07:04:33;;;;;;;;;;;3.70;84.00;;;;;;4909137;28;20399;-42
2021/01/04 07:07:09;;;;;;;;;;;3.80;83.90;;;;;;4911101;28;20017;-44
2021/01/04 07:09:51;;;;;;;;;;;3.70;83.90;;;;;;4910534;28;19953;-43
2021/01/04 07:12:22;;;;;;;;;;;3.80;83.90;;;;;;4911264;28;19973;-46
2021/01/04 07:15:12;;;;;;;;;;;3.80;83.90;;;;;;4912093;28;19982;-45
2021/01/04 07:17:41;;;;;;;;;;;3.80;84.00;;;;;;4910006;28;19930;-41
2021/01/04 07:20:28;;;;;;;;;;;3.80;84.00;;;;;;4911812;28;20421;-46
2021/01/04 07:23:04;;;;;;;;;;;3.80;83.90;;;;;;4916164;28;19930;-45
2021/01/04 07:25:33;;;;;;;;;;;3.80;83.90;;;;;;4905964;28;19930;-46
2021/01/04 07:28:09;;;;;;;;;;;3.80;83.90;;;;;;4910973;28;20330;-45
2021/01/04 07:30:41;;;;;;;;;;;3.80;83.80;;;;;;4911298;28;19930;-45
2021/01/04 07:33:08;;;;;;;;;;;3.80;83.90;;;;;;4904841;28;20413;-44
2021/01/04 07:35:38;;;;;;;;;;;3.80;84.00;;;;;;4910581;28;20720;-43
2021/01/04 07:38:24;;;;;;;;;;;3.80;84.00;;;;;;4906993;28;19934;-46
2021/01/04 07:41:02;;;;;;;;;;;3.80;83.90;;;;;;4907809;28;19937;-44
2021/01/04 07:43:29;;;;;;;;;;;3.80;84.00;;;;;;4913942;28;20354;-45
2021/01/04 07:46:11;;;;;;;;;;;3.80;83.90;;;;;;4892548;28;19934;-45
2021/01/04 07:48:56;;;;;;;;;;;3.90;83.90;;;;;;4897197;28;19934;-44
2021/01/04 07:51:35;;;;;;;;;;;3.80;83.80;;;;;;4898307;28;19934;-46
2021/01/04 07:54:17;;;;;;;;;;;3.80;84.00;;;;;;4904637;28;19934;-43
2021/01/04 07:56:46;;;;;;;;;;;3.80;83.90;;;;;;4898486;28;19940;-46
2021/01/04 07:59:23;;;;;;;;;;;3.80;83.90;;;;;;4893489;28;20015;-46
2021/01/04 08:02:18;;;;;;;;;;;3.80;84.00;;;;;;4897740;28;20444;-44
2021/01/04 08:04:48;;;;;;;;;;;3.80;84.10;;;;;;4891991;28;20321;-45
2021/01/04 08:07:53;;;;;;;;;;;3.90;84.10;;;;;;4911035;28;20024;-46
2021/01/04 08:10:49;;;;;;;;;;;3.90;84.00;;;;;;4841704;29;19935;-46
2021/01/04 08:13:34;;;;;;;;;;;3.90;84.00;;;;;;4824218;29;20431;-45
2021/01/04 08:16:27;;;;;;;;;;;3.90;84.00;;;;;;4892666;28;19933;-45
2021/01/04 08:18:59;;;;;;;;;;;3.90;84.10;;;;;;4899370;28;19934;-45
2021/01/04 08:21:26;;;;;;;;;;;3.90;83.90;;;;;;4913520;28;19930;-45
2021/01/04 08:24:04;;;;;;;;;;;4.00;83.90;;;;;;4916701;28;20283;-43
2021/01/04 08:26:50;;;;;;;;;;;4.00;83.90;;;;;;4897357;28;19957;-45
2021/01/04 08:29:31;;;;;;;;;;;4.00;83.90;;;;;;4895601;28;19934;-46
2021/01/04 08:32:17;;;;;;;;;;;4.00;83.90;;;;;;4894727;28;19977;-45
2021/01/04 08:34:44;;;;;;;;;;;4.00;83.90;;;;;;4915482;28;20799;-44
2021/01/04 08:37:12;;;;;;;;;;;4.10;83.80;;;;;;4918956;28;19936;-44
2021/01/04 08:39:44;;;;;;;;;;;4.10;83.80;;;;;;4906560;28;19930;-45
2021/01/04 08:42:10;;;;;;;;;;;4.10;83.80;;;;;;4896861;28;19941;-45
2021/01/04 08:44:36;;;;;;;;;;;4.10;83.70;;;;;;4908503;28;20367;-46
2021/01/04 08:47:10;;;;;;;;;;;4.10;83.80;;;;;;4913745;28;19930;-45
2021/01/04 08:49:41;;;;;;;;;;;4.10;83.80;;;;;;4914703;28;20855;-44
2021/01/04 08:52:19;;;;;;;;;;;4.10;83.70;;;;;;4908034;28;19939;-45
2021/01/04 08:54:56;;;;;;;;;;;4.20;83.80;;;;;;4904536;28;20635;-45
2021/01/04 08:57:25;;;;;;;;;;;4.20;83.70;;;;;;4912772;28;19933;-46
2021/01/04 08:59:54;;;;;;;;;;;4.20;83.70;;;;;;4908317;28;19961;-45
2021/01/04 09:02:32;;;;;;;;;;;4.20;83.70;;;;;;4909832;28;19957;-45
2021/01/04 09:05:04;;;;;;;;;;;4.20;83.70;;;;;;4908264;28;19935;-44
2021/01/04 09:07:30;;;;;;;;;;;4.20;83.70;;;;;;4912376;28;19933;-46
2021/01/04 09:10:03;;;;;;;;;;;4.20;83.60;;;;;;4904662;28;19936;-44
2021/01/04 09:12:37;;;;;;;;;;;4.20;83.70;;;;;;4921415;28;19938;-45
2021/01/04 09:15:06;;;;;;;;;;;4.20;83.60;;;;;;4910314;28;19926;-45
2021/01/04 09:17:45;;;;;;;;;;;4.20;83.70;;;;;;4910079;28;20317;-43
2021/01/04 09:20:14;;;;;;;;;;;4.20;83.60;;;;;;4924537;28;19930;-45
2021/01/04 09:22:40;;;;;;;;;;;4.20;83.50;;;;;;4912991;28;20036;-43
2021/01/04 09:25:19;;;;;;;;;;;4.20;83.30;;;;;;4914339;28;20596;-43
2021/01/04 09:27:47;;;;;;;;;;;4.20;83.30;;;;;;4915472;28;20397;-43
2021/01/04 09:30:18;;;;;;;;;;;4.20;83.30;;;;;;4909205;28;20003;-43
2021/01/04 09:33:05;;;;;;;;;;;4.30;83.30;;;;;;4916058;28;19933;-46
2021/01/04 09:35:31;;;;;;;;;;;4.30;83.30;;;;;;4912125;28;20515;-46
2021/01/04 09:38:21;;;;;;;;;;;4.30;83.30;;;;;;4911370;28;19942;-45
2021/01/04 09:41:07;;;;;;;;;;;4.30;83.20;;;;;;4901628;28;19936;-45
2021/01/04 09:43:35;;;;;;;;;;;4.30;83.20;;;;;;4915674;28;20270;-46
2021/01/04 09:46:22;;;;;;;;;;;4.40;83.00;;;;;;4902675;28;19948;-44
2021/01/04 09:48:49;;;;;;;;;;;4.40;83.00;;;;;;4899187;28;20374;-44
2021/01/04 09:51:17;;;;;;;;;;;4.40;82.90;;;;;;4896377;28;19930;-43
2021/01/04 09:53:51;;;;;;;;;;;4.40;82.90;;;;;;4895271;28;20275;-46
2021/01/04 09:56:18;;;;;;;;;;;4.40;82.90;;;;;;4890170;28;20017;-46
2021/01/04 09:58:47;;;;;;;;;;;4.40;82.80;;;;;;4900138;28;19934;-42
2021/01/04 10:01:17;;;;;;;;;;;4.40;82.90;;;;;;4895302;28;19927;-43
2021/01/04 10:03:52;;;;;;;;;;;4.40;82.90;;;;;;4899673;28;20024;-43
2021/01/04 10:06:18;;;;;;;;;;;4.40;82.80;;;;;;4899334;28;19934;-44
2021/01/04 10:08:45;;;;;;;;;;;4.40;82.80;;;;;;4898607;28;22717;-46
2021/01/04 10:11:19;;;;;;;;;;;4.50;82.70;;;;;;4901469;28;20260;-45
2021/01/04 10:13:45;;;;;;;;;;;4.40;82.70;;;;;;4896619;28;19929;-45
2021/01/04 10:16:18;;;;;;;;;;;4.50;82.60;;;;;;4899577;28;19934;-45
2021/01/04 10:18:48;;;;;;;;;;;4.40;82.50;;;;;;4898224;28;19930;-44
2021/01/04 10:21:16;;;;;;;;;;;4.50;82.50;;;;;;4894703;28;19937;-46
2021/01/04 10:23:49;;;;;;;;;;;4.50;82.60;;;;;;4906745;28;19941;-44
2021/01/04 10:26:37;;;;;;;;;;;4.50;82.50;;;;;;4898997;28;19938;-46
2021/01/04 10:29:07;;;;;;;;;;;4.50;82.60;;;;;;4908216;28;20290;-46
2021/01/04 10:31:35;;;;;;;;;;;4.50;82.50;;;;;;4902398;28;20017;-46
2021/01/04 10:34:08;;;;;;;;;;;4.50;82.40;;;;;;4901922;28;20105;-45
2021/01/04 10:36:35;;;;;;;;;;;4.50;82.40;;;;;;4895293;28;19970;-44
2021/01/04 10:39:08;;;;;;;;;;;4.50;82.20;;;;;;4895728;28;20124;-46
2021/01/04 10:41:35;;;;;;;;;;;4.60;82.10;;;;;;4897911;28;23414;-46
2021/01/04 10:44:03;;;;;;;;;;;4.60;82.10;;;;;;4892592;28;19934;-45
2021/01/04 10:46:29;;;;;;;;;;;4.60;82.10;;;;;;4897363;28;19926;-46
2021/01/04 10:49:00;;;;;;;;;;;4.60;82.00;;;;;;4905008;28;19977;-45
2021/01/04 10:51:28;;;;;;;;;;;4.60;82.00;;;;;;4895259;28;20060;-45
2021/01/04 10:53:55;;;;;;;;;;;4.60;82.00;;;;;;4895930;28;24297;-44
2021/01/04 10:56:28;;;;;;;;;;;4.60;81.90;;;;;;4898931;28;20021;-45
2021/01/04 10:58:54;;;;;;;;;;;4.60;81.90;;;;;;4894467;28;20073;-46
2021/01/04 11:01:23;;;;;;;;;;;4.70;81.70;;;;;;4901052;28;19934;-46
2021/01/04 11:03:54;;;;;;;;;;;4.70;81.60;;;;;;4894969;28;19934;-46
2021/01/04 11:06:24;;;;;;;;;;;4.70;81.50;;;;;;4896167;28;22617;-44
2021/01/04 11:08:51;;;;;;;;;;;4.70;81.50;;;;;;4894057;28;19956;-43
2021/01/04 11:11:17;;;;;;;;;;;4.70;81.40;;;;;;4897026;28;20001;-45
2021/01/04 11:13:44;;;;;;;;;;;4.70;81.50;;;;;;4887381;28;19949;-45
2021/01/04 11:16:17;;;;;;;;;;;4.70;81.40;;;;;;4890465;28;19959;-46
2021/01/04 11:18:54;;;;;;;;;;;4.80;81.30;;;;;;4883133;28;19934;-44
2021/01/04 11:21:36;;;;;;;;;;;4.70;81.40;;;;;;4890024;28;20378;-47
2021/01/04 11:24:05;;;;;;;;;;;4.70;81.40;;;;;;4886917;28;19971;-45
2021/01/04 11:26:31;;;;;;;;;;;4.70;81.40;;;;;;4891834;28;21607;-46
2021/01/04 11:28:58;;;;;;;;;;;4.70;81.30;;;;;;4898716;28;19937;-46
2021/01/04 11:31:24;;;;;;;;;;;4.70;81.20;;;;;;4897783;28;19933;-46
2021/01/04 11:33:58;;;;;;;;;;;4.70;81.20;;;;;;4891688;28;19933;-46
2021/01/04 11:36:24;;;;;;;;;;;4.70;81.20;;;;;;4887386;28;19934;-46
2021/01/04 11:38:52;;;;;;;;;;;4.70;81.00;;;;;;4892814;28;19934;-45
2021/01/04 11:41:19;;;;;;;;;;;4.70;81.00;;;;;;4903645;28;19981;-45
2021/01/04 11:43:47;;;;;;;;;;;4.70;80.90;;;;;;4894208;28;19941;-45
2021/01/04 11:46:17;;;;;;;;;;;4.70;81.00;;;;;;4894482;28;19981;-45
2021/01/04 11:48:44;;;;;;;;;;;4.70;80.90;;;;;;4906797;28;19938;-43
2021/01/04 11:51:14;;;;;;;;;;;4.70;80.90;;;;;;4915934;28;19965;-45
2021/01/04 11:53:40;;;;;;;;;;;4.70;80.80;;;;;;4907549;28;19933;-46
2021/01/04 11:56:07;;;;;;;;;;;4.70;80.80;;;;;;4906505;28;19993;-45
2021/01/04 11:58:39;;;;;;;;;;;4.70;80.70;;;;;;4895660;28;19969;-45
2021/01/04 12:01:06;;;;;;;;;;;4.80;80.80;;;;;;4905307;28;20345;-45
2021/01/04 12:03:32;;;;;;;;;;;4.70;81.00;;;;;;4903764;28;20271;-46
2021/01/04 12:05:58;;;;;;;;;;;4.70;81.00;;;;;;4908639;28;20293;-44
2021/01/04 12:08:24;;;;;;;;;;;4.80;80.90;;;;;;4917220;28;19934;-46
2021/01/04 12:10:51;;;;;;;;;;;4.80;80.80;;;;;;4908006;28;20056;-46
2021/01/04 12:13:17;;;;;;;;;;;4.70;80.80;;;;;;4901621;28;19930;-45
2021/01/04 12:15:43;;;;;;;;;;;4.80;80.60;;;;;;4913142;28;20270;-44
2021/01/04 12:18:10;;;;;;;;;;;4.80;80.60;;;;;;4909585;28;19931;-46
2021/01/04 12:20:36;;;;;;;;;;;4.80;80.60;;;;;;4893640;28;20051;-45
2021/01/04 12:23:03;;;;;;;;;;;4.80;80.50;;;;;;4900831;28;19937;-46
2021/01/04 12:25:30;;;;;;;;;;;4.80;80.30;;;;;;4912287;28;19930;-44
2021/01/04 12:27:56;;;;;;;;;;;4.80;80.40;;;;;;4922828;28;19934;-42
2021/01/04 12:30:24;;;;;;;;;;;4.70;80.40;;;;;;4911058;28;20045;-42
2021/01/04 12:32:51;;;;;;;;;;;4.80;80.30;;;;;;4910067;28;19930;-43
2021/01/04 12:35:17;;;;;;;;;;;4.80;80.30;;;;;;4904854;28;20029;-44
2021/01/04 12:37:43;;;;;;;;;;;4.70;80.30;;;;;;4901614;28;19934;-45
2021/01/04 12:40:11;;;;;;;;;;;4.80;80.40;;;;;;4907819;28;21443;-42
2021/01/04 12:42:42;;;;;;;;;;;4.80;80.20;;;;;;4907483;28;20698;-44
2021/01/04 12:45:09;;;;;;;;;;;4.70;80.10;;;;;;4906589;28;19982;-43
2021/01/04 12:47:35;;;;;;;;;;;4.70;80.00;;;;;;4915191;28;19930;-45
2021/01/04 12:50:02;;;;;;;;;;;4.70;79.90;;;;;;4910759;28;20101;-43
2021/01/04 12:52:29;;;;;;;;;;;4.70;80.10;;;;;;4909142;28;20963;-46
2021/01/04 12:54:55;;;;;;;;;;;4.70;80.20;;;;;;4906068;28;19926;-42
2021/01/04 12:57:24;;;;;;;;;;;4.80;80.00;;;;;;4906420;28;20055;-44
2021/01/04 12:59:50;;;;;;;;;;;4.80;80.10;;;;;;4910440;28;19930;-45
2021/01/04 13:02:18;;;;;;;;;;;4.80;80.10;;;;;;4899767;28;20422;-44
2021/01/04 13:04:45;;;;;;;;;;;4.80;80.00;;;;;;4903467;28;19941;-43
2021/01/04 13:07:12;;;;;;;;;;;4.80;79.90;;;;;;4913758;28;19941;-43
2021/01/04 13:09:39;;;;;;;;;;;4.80;79.70;;;;;;4907669;28;19934;-45
2021/01/04 13:12:05;;;;;;;;;;;4.70;79.90;;;;;;4911797;28;19933;-44
2021/01/04 13:14:32;;;;;;;;;;;4.80;79.70;;;;;;4915208;28;19976;-45
2021/01/04 13:16:59;;;;;;;;;;;4.70;79.80;;;;;;4915396;28;19930;-44
2021/01/04 13:19:30;;;;;;;;;;;4.70;79.80;;;;;;4908771;28;19930;-45
2021/01/04 13:21:57;;;;;;;;;;;4.70;79.90;;;;;;4911778;28;19933;-47
2021/01/04 13:24:24;;;;;;;;;;;4.70;79.90;;;;;;4907641;28;19938;-46
2021/01/04 13:26:52;;;;;;;;;;;4.70;79.90;;;;;;4911488;28;19933;-42
2021/01/04 13:29:26;;;;;;;;;;;4.70;79.70;;;;;;4914490;28;19979;-43
2021/01/04 13:31:54;;;;;;;;;;;4.70;79.60;;;;;;4913267;28;22543;-44
2021/01/04 13:34:20;;;;;;;;;;;4.70;79.60;;;;;;4922817;28;20024;-43
2021/01/04 13:36:47;;;;;;;;;;;4.70;79.50;;;;;;4910296;28;19930;-44
2021/01/04 13:39:17;;;;;;;;;;;4.70;79.40;;;;;;4909378;28;19945;-45
2021/01/04 13:41:43;;;;;;;;;;;4.80;79.50;;;;;;4910925;28;20433;-43
2021/01/04 13:44:10;;;;;;;;;;;4.70;79.60;;;;;;4905086;28;20015;-41
2021/01/04 13:46:36;;;;;;;;;;;4.80;79.60;;;;;;4912474;28;19930;-44
2021/01/04 13:49:05;;;;;;;;;;;4.70;79.50;;;;;;4913467;28;19936;-44
2021/01/04 13:51:31;;;;;;;;;;;4.70;79.50;;;;;;4915495;28;19941;-47
2021/01/04 13:53:58;;;;;;;;;;;4.70;79.50;;;;;;4904004;28;23500;-43
2021/01/04 13:56:33;;;;;;;;;;;4.70;79.50;;;;;;4910792;28;20023;-41
2021/01/04 13:59:00;;;;;;;;;;;4.70;79.30;;;;;;4911086;28;19957;-47
2021/01/04 14:01:26;;;;;;;;;;;4.70;79.30;;;;;;4909562;28;20463;-45
2021/01/04 14:03:53;;;;;;;;;;;4.70;79.30;;;;;;4913922;28;19926;-43
2021/01/04 14:06:21;;;;;;;;;;;4.70;79.40;;;;;;4910539;28;19930;-43
2021/01/04 14:08:48;;;;;;;;;;;4.70;79.20;;;;;;4911176;28;19941;-46
2021/01/04 14:11:15;;;;;;;;;;;4.70;79.40;;;;;;4904686;28;20309;-44
2021/01/04 14:13:42;;;;;;;;;;;4.70;79.60;;;;;;4905301;28;19926;-42
2021/01/04 14:16:08;;;;;;;;;;;4.60;79.50;;;;;;4909689;28;19985;-46
2021/01/04 14:18:34;;;;;;;;;;;4.60;79.40;;;;;;4904124;28;19938;-44
2021/01/04 14:21:01;;;;;;;;;;;4.60;79.60;;;;;;4921491;28;19941;-44
2021/01/04 14:23:28;;;;;;;;;;;4.60;79.60;;;;;;4905177;28;20012;-44
2021/01/04 14:25:54;;;;;;;;;;;4.60;79.60;;;;;;4895252;28;19965;-44
2021/01/04 14:28:21;;;;;;;;;;;4.60;79.60;;;;;;4912965;28;19973;-42
2021/01/04 14:30:47;;;;;;;;;;;4.60;79.60;;;;;;4909160;28;20299;-44
2021/01/04 14:33:14;;;;;;;;;;;4.70;79.60;;;;;;4910855;28;19945;-42
2021/01/04 14:35:40;;;;;;;;;;;4.70;79.50;;;;;;4910213;28;19926;-42
2021/01/04 14:38:07;;;;;;;;;;;4.60;79.50;;;;;;4915492;28;20286;-44
2021/01/04 14:40:33;;;;;;;;;;;4.60;79.70;;;;;;4905193;28;22487;-45
2021/01/04 14:42:59;;;;;;;;;;;4.70;79.70;;;;;;4925347;28;19934;-45
2021/01/04 14:45:27;;;;;;;;;;;4.70;79.60;;;;;;4904735;28;20271;-44
2021/01/04 14:47:53;;;;;;;;;;;4.70;79.40;;;;;;4909257;28;20005;-45
2021/01/04 14:50:19;;;;;;;;;;;4.60;79.30;;;;;;4905689;28;19935;-46
2021/01/04 14:52:46;;;;;;;;;;;4.60;79.50;;;;;;4922941;28;20390;-44
2021/01/04 14:55:13;;;;;;;;;;;4.70;79.50;;;;;;4910380;28;19926;-44
2021/01/04 14:57:39;;;;;;;;;;;4.70;79.50;;;;;;4911477;28;19930;-47
2021/01/04 15:00:10;;;;;;;;;;;4.70;79.50;;;;;;4907972;28;19930;-45